Data for 05/23/2013

Time Sea-Level Adjusted Pressure Absolute Pressure Temperature Relative Humidity Dew Point   
(mb) (inHg) (mb) (inHg) (C) (F) (%) (C) (F)
00:05 1012 29.88 841 24.83 8.6 47.4 83 5.8 42.4
00:10 1012 29.88 842 24.86 8.5 47.2 83 5.7 42.3
00:15 1013 29.91 842 24.86 8.5 47.2 83 5.7 42.3
00:20 1013 29.91 842 24.86 8.4 47.1 83 5.7 42.2
00:25 1012 29.88 842 24.86 8.3 47 83 5.6 42.1
00:30 1013 29.91 842 24.86 8.4 47 83 5.6 42.1
00:35 1013 29.91 842 24.86 8.4 47.1 82 5.5 41.9
00:40 1013 29.91 842 24.86 8.4 47.1 82 5.5 42
00:45 1013 29.91 842 24.86 8.4 47.1 82 5.6 42
00:50 1013 29.91 842 24.86 8.4 47.1 82 5.6 42
00:55 1013 29.91 842 24.86 8.4 47.1 82 5.6 42.1
01:00 1013 29.91 842 24.86 8.4 47 83 5.7 42.2
01:05 1013 29.91 842 24.86 8.3 47 83 5.7 42.2
01:10 1012 29.88 842 24.86 8.4 47 84 5.8 42.4
01:15 1012 29.88 841 24.83 8.2 46.7 86 6.1 42.9
01:20 1013 29.91 842 24.86 8 46.4 87 6 42.7
01:25 1013 29.91 842 24.86 8 46.4 87 6 42.7
01:30 1013 29.91 842 24.86 7.8 46.1 88 5.9 42.6
01:35 1013 29.91 842 24.86 7.1 44.8 89 5.4 41.7
01:40 1013 29.91 842 24.86 6.7 44.1 91 5.3 41.5
01:45 1013 29.91 842 24.86 6.5 43.7 91 5.2 41.3
01:50 1013 29.91 842 24.86 6.3 43.3 92 5.1 41.1
01:55 1013 29.91 842 24.86 6.1 43 92 5 41
02:00 1013 29.91 842 24.86 6.1 42.9 93 5 41
02:05 1013 29.91 842 24.86 6 42.8 93 5 41
02:10 1013 29.91 842 24.86 6 42.7 93 4.9 40.9
02:15 1013 29.91 842 24.86 6 42.7 93 4.9 40.9
02:20 1013 29.91 842 24.86 5.9 42.6 93 4.8 40.6
02:25 1013 29.91 842 24.86 5.8 42.5 92 4.7 40.4
02:30 1013 29.91 842 24.86 5.9 42.6 92 4.7 40.5
02:35 1013 29.91 842 24.86 5.9 42.6 93 4.8 40.6
02:40 1013 29.91 842 24.86 5.8 42.5 92 4.6 40.3
02:45 1013 29.91 842 24.86 5.6 42.1 92 4.4 39.9
02:50 1013 29.91 843 24.89 5.5 42 93 4.4 40
02:55 1013 29.91 842 24.86 5.5 41.9 92 4.4 39.8
03:00 1013 29.91 842 24.86 5.4 41.8 92 4.3 39.7
03:05 1013 29.91 843 24.89 5.3 41.5 92 4.1 39.4
03:10 1013 29.91 843 24.89 5.2 41.4 92 4 39.2
03:15 1013 29.91 843 24.89 5.1 41.2 92 3.9 38.9
03:20 1013 29.91 843 24.89 4.9 40.7 93 3.8 38.8
03:25 1013 29.91 843 24.89 4.7 40.4 94 3.7 38.7
03:30 1014 29.94 843 24.89 4.7 40.4 94 3.8 38.8
03:35 1014 29.94 843 24.89 4.7 40.4 94 3.7 38.7
03:40 1014 29.94 843 24.89 4.6 40.3 94 3.8 38.8
03:45 1014 29.94 843 24.89 4.6 40.3 94 3.8 38.8
03:50 1014 29.94 843 24.89 4.5 40.2 95 3.8 38.8
03:55 1014 29.94 843 24.89 4.6 40.2 95 3.8 38.8
04:00 1014 29.94 843 24.89 4.5 40 95 3.7 38.7
04:05 1014 29.94 843 24.89 4.5 40.2 95 3.8 38.8
04:10 1014 29.94 843 24.89 4.3 39.8 95 3.6 38.4
04:15 1014 29.94 843 24.89 4.3 39.8 95 3.6 38.5
04:20 1014 29.94 843 24.89 4.4 39.9 95 3.7 38.6
04:25 1014 29.94 843 24.89 4.4 39.9 95 3.7 38.7
04:30 1014 29.94 843 24.89 4.5 40.2 95 3.8 38.9
04:35 1014 29.94 843 24.89 4.6 40.3 95 3.9 39
04:40 1014 29.94 843 24.89 4.6 40.3 95 3.9 39
04:45 1014 29.94 843 24.89 4.6 40.3 95 3.9 39.1
04:50 1014 29.94 843 24.89 4.7 40.4 95 3.9 39.1
04:55 1014 29.94 844 24.92 4.6 40.3 95 3.9 39.1
05:00 1014 29.94 843 24.89 4.6 40.3 95 3.9 39
05:05 1014 29.94 843 24.89 4.6 40.2 95 3.8 38.9
05:10 1014 29.94 843 24.89 4.5 40.1 95 3.7 38.7
05:15 1014 29.94 843 24.89 4.5 40.2 95 3.8 38.8
05:20 1014 29.94 843 24.89 4.5 40 95 3.7 38.7
05:25 1014 29.94 843 24.89 4.5 40.1 95 3.8 38.8
05:30 1014 29.94 843 24.89 4.5 40.2 95 3.8 38.8
05:35 1014 29.94 843 24.89 4.4 40 95 3.7 38.6
05:40 1014 29.94 843 24.89 4.4 40 95 3.7 38.7
05:45 1014 29.94 844 24.92 4.5 40.1 95 3.8 38.8
05:50 1014 29.94 844 24.92 4.5 40.2 95 3.8 38.8
05:55 1014 29.94 844 24.92 4.6 40.3 95 3.8 38.9
06:00 1015 29.97 844 24.92 4.6 40.3 95 3.8 38.9
06:05 1015 29.97 844 24.92 4.6 40.3 95 3.9 39
06:10 1015 29.97 844 24.92 4.7 40.4 95 3.9 39
06:15 1015 29.97 844 24.92 4.7 40.4 94 3.8 38.9
06:20 1015 29.97 844 24.92 4.6 40.2 94 3.7 38.6
06:25 1015 29.97 844 24.92 4.5 40 94 3.6 38.5
06:30 1015 29.97 844 24.92 4.4 39.9 94 3.5 38.4
06:35 1015 29.97 844 24.92 4.4 39.9 94 3.5 38.3
06:40 1015 29.97 844 24.92 4.4 39.8 94 3.5 38.3
06:45 1015 29.97 844 24.92 4.4 39.8 94 3.5 38.3
06:50 1015 29.97 844 24.92 4.3 39.7 94 3.4 38.1
06:55 1015 29.97 844 24.92 4.2 39.6 94 3.3 37.9
07:00 1015 29.97 844 24.92 4.2 39.5 94 3.3 37.9
07:05 1015 29.97 844 24.92 4.2 39.6 94 3.4 38.1
07:10 1015 29.97 844 24.92 4.3 39.7 94 3.4 38.1
07:15 1015 29.97 844 24.92 4.3 39.7 94 3.4 38.1
07:20 1015 29.97 844 24.92 4.3 39.7 94 3.4 38.1
07:25 1015 29.97 844 24.92 4.3 39.8 94 3.4 38.1
07:30 1015 29.97 844 24.92 4.3 39.7 94 3.4 38
07:35 1015 29.97 844 24.92 4.4 39.9 93 3.4 38.1
07:40 1015 29.97 844 24.92 4.3 39.7 93 3.3 37.9
07:45 1015 29.97 844 24.92 4.2 39.6 93 3.2 37.8
07:50 1015 29.97 844 24.92 4.3 39.7 93 3.3 37.9
07:55 1015 29.97 844 24.92 4.2 39.6 93 3.2 37.8
08:00 1015 29.97 844 24.92 4.3 39.7 93 3.2 37.7
08:05 1015 29.97 844 24.92 4.3 39.7 93 3.2 37.8
08:10 1015 29.97 844 24.92 4.4 39.9 93 3.3 38
08:15 1015 29.97 844 24.92 4.6 40.3 92 3.5 38.2
08:20 1015 29.97 844 24.92 4.7 40.4 93 3.6 38.4
08:25 1015 29.97 844 24.92 4.8 40.6 92 3.6 38.4
08:30 1015 29.97 844 24.92 4.8 40.6 91 3.4 38.2
08:35 1015 29.97 844 24.92 4.8 40.6 91 3.5 38.2
08:40 1015 29.97 844 24.92 4.9 40.9 91 3.6 38.5
08:45 1015 29.97 844 24.92 5 41 91 3.6 38.4
08:50 1015 29.97 844 24.92 5.1 41.2 90 3.5 38.4
08:55 1015 29.97 844 24.92 5.2 41.3 88 3.4 38.2
09:00 1015 29.97 844 24.92 5.2 41.4 90 3.6 38.5
09:05 1015 29.97 844 24.92 5.6 42.1 85 3.3 38
09:10 1015 29.97 844 24.92 5.7 42.2 86 3.6 38.4
09:15 1015 29.97 844 24.92 5.9 42.6 85 3.6 38.5
09:20 1015 29.97 844 24.92 6 42.9 83 3.4 38.1
09:25 1015 29.97 844 24.92 5.6 42.1 89 4 39.2
09:30 1015 29.97 844 24.92 6.1 43.1 83 3.5 38.3
09:35 1015 29.97 844 24.92 6.3 43.3 83 3.6 38.5
09:40 1015 29.97 844 24.92 6.4 43.6 84 3.9 39.1
09:45 1015 29.97 844 24.92 6.7 44 80 3.5 38.4
09:50 1015 29.97 844 24.92 6.8 44.3 80 3.7 38.6
09:55 1015 29.97 844 24.92 7 44.7 78 3.4 38.1
10:00 1015 29.97 844 24.92 7.1 44.7 78 3.4 38.1
10:05 1015 29.97 844 24.92 7 44.7 77 3.3 38
10:10 1015 29.97 844 24.92 7.2 45 76 3.3 38
10:15 1014 29.94 844 24.92 7.5 45.4 79 4.1 39.4
10:20 1014 29.94 844 24.92 7.9 46.1 76 3.8 38.9
10:25 1014 29.94 844 24.92 7.8 46.1 73 3.3 37.9
10:30 1014 29.94 844 24.92 7.8 46.1 74 3.4 38.2
10:35 1014 29.94 844 24.92 7.8 46.1 72 3.1 37.6
10:40 1014 29.94 844 24.92 7.6 45.7 73 3.1 37.5
10:45 1015 29.97 844 24.92 7.7 45.9 73 3.2 37.7
10:50 1015 29.97 844 24.92 7.8 46 73 3.2 37.8
10:55 1014 29.94 844 24.92 8.1 46.5 71 3.1 37.6
11:00 1014 29.94 844 24.92 8.5 47.3 71 3.6 38.4
11:05 1015 29.97 844 24.92 8.4 47.2 70 3.4 38.1
11:10 1014 29.94 844 24.92 8.5 47.2 70 3.2 37.8
11:15 1014 29.94 843 24.89 8.8 47.8 67 2.9 37.3
11:20 1014 29.94 844 24.92 9.2 48.6 66 3.2 37.8
11:25 1014 29.94 844 24.92 9.1 48.4 67 3.3 38
11:30 1014 29.94 844 24.92 9.2 48.5 67 3.5 38.3
11:35 1014 29.94 844 24.92 9.2 48.5 69 3.9 38.9
11:40 1014 29.94 844 24.92 9.4 48.8 68 3.7 38.7
11:45 1014 29.94 843 24.89 9.3 48.7 67 3.5 38.3
11:50 1014 29.94 844 24.92 9.2 48.5 67 3.4 38
11:55 1014 29.94 844 24.92 8.9 48 69 3.6 38.5
12:00 1014 29.94 844 24.92 9 48.1 66 3.1 37.6
12:05 1014 29.94 844 24.92 9.1 48.3 68 3.5 38.2
12:10 1014 29.94 844 24.92 8.9 47.9 70 3.6 38.6
12:15 1014 29.94 844 24.92 8.6 47.5 70 3.4 38.1
12:20 1014 29.94 844 24.92 8.6 47.5 70 3.4 38.1
12:25 1014 29.94 844 24.92 8.6 47.4 70 3.5 38.3
12:30 1014 29.94 843 24.89 8.4 47.1 71 3.5 38.2
12:35 1014 29.94 844 24.92 8.3 46.9 71 3.4 38.2
12:40 1014 29.94 844 24.92 8.1 46.5 72 3.3 38
12:45 1014 29.94 843 24.89 8.1 46.5 71 3.1 37.6
12:50 1014 29.94 843 24.89 8.2 46.7 71 3.3 38
12:55 1014 29.94 844 24.92 8 46.4 72 3.4 38.1
13:00 1014 29.94 843 24.89 8.1 46.6 73 3.5 38.2
13:05 1014 29.94 844 24.92 8.1 46.5 74 3.7 38.6
13:10 1014 29.94 844 24.92 7.9 46.2 75 3.8 38.8
13:15 1014 29.94 844 24.92 7.9 46.1 77 4 39.3
13:20 1014 29.94 844 24.92 7.8 46.1 76 4 39.1
13:25 1014 29.94 844 24.92 7.6 45.6 78 4 39.1
13:30 1015 29.97 844 24.92 7.5 45.5 80 4.3 39.7
13:35 1014 29.94 844 24.92 7.5 45.4 81 4.4 39.9
13:40 1014 29.94 844 24.92 7.5 45.5 81 4.4 39.9
13:45 1014 29.94 843 24.89 7.6 45.6 80 4.3 39.8
13:50 1014 29.94 843 24.89 7.6 45.7 77 3.9 39.1
13:55 1014 29.94 844 24.92 7.5 45.5 78 3.9 39.1
14:00 1014 29.94 844 24.92 7.4 45.4 80 4.1 39.5
14:05 1014 29.94 844 24.92 7.5 45.6 77 3.7 38.7
14:10 1014 29.94 844 24.92 7.6 45.6 77 3.8 38.9
14:15 1014 29.94 844 24.92 7.6 45.7 77 3.8 38.9
14:20 1014 29.94 844 24.92 7.6 45.7 79 4.3 39.7
14:25 1015 29.97 844 24.92 7.6 45.8 80 4.5 40.1
14:30 1015 29.97 844 24.92 7.6 45.6 80 4.3 39.8
14:35 1015 29.97 844 24.92 7.6 45.7 76 3.8 38.8
14:40 1015 29.97 844 24.92 7.5 45.5 80 4.2 39.6
14:45 1015 29.97 844 24.92 7.9 46.2 77 4.1 39.4
14:50 1015 29.97 844 24.92 8.1 46.6 77 4.3 39.8
14:55 1015 29.97 844 24.92 8.5 47.4 71 3.7 38.6
15:00 1015 29.97 844 24.92 8.5 47.2 73 4 39.2
15:05 1015 29.97 844 24.92 8.3 46.9 74 3.8 38.9
15:10 1015 29.97 844 24.92 8.2 46.8 75 4 39.1
15:15 1015 29.97 844 24.92 8.3 46.9 72 3.6 38.5
15:20 1014 29.94 844 24.92 8.6 47.4 72 3.7 38.7
15:25 1014 29.94 844 24.92 8.6 47.5 69 3.3 38
15:30 1014 29.94 844 24.92 8.7 47.7 70 3.6 38.5
15:35 1014 29.94 844 24.92 8.7 47.6 70 3.6 38.5
15:40 1014 29.94 843 24.89 8.7 47.6 70 3.5 38.4
15:45 1014 29.94 843 24.89 8.9 47.9 70 3.7 38.7
15:50 1014 29.94 843 24.89 8.8 47.9 70 3.6 38.5
15:55 1014 29.94 843 24.89 8.4 47.2 71 3.5 38.4
16:00 1014 29.94 843 24.89 8.4 47.1 68 2.9 37.2
16:05 1014 29.94 843 24.89 8.7 47.6 68 3.1 37.6
16:10 1014 29.94 843 24.89 8.5 47.3 69 3.2 37.8
16:15 1014 29.94 843 24.89 8.7 47.7 67 3 37.5
16:20 1014 29.94 843 24.89 8.6 47.4 69 3.2 37.8
16:25 1014 29.94 843 24.89 8.3 47 69 2.9 37.2
16:30 1014 29.94 843 24.89 8.4 47.2 69 3 37.5
16:35 1014 29.94 843 24.89 8.1 46.5 70 3 37.4
16:40 1014 29.94 843 24.89 8 46.4 71 3 37.5
16:45 1014 29.94 843 24.89 8.3 46.9 70 3.2 37.7
16:50 1014 29.94 843 24.89 8.4 47.1 70 3.3 38
16:55 1014 29.94 843 24.89 8.4 47.1 71 3.4 38.2
17:00 1014 29.94 843 24.89 8.5 47.3 70 3.4 38.1
17:05 1014 29.94 843 24.89 8.3 46.9 72 3.6 38.5
17:10 1013 29.91 843 24.89 8.4 47 71 3.5 38.3
17:15 1013 29.91 843 24.89 8.5 47.2 71 3.5 38.3
17:20 1013 29.91 843 24.89 8.2 46.7 73 3.5 38.4
17:25 1013 29.91 843 24.89 8.1 46.7 72 3.4 38.1
17:30 1013 29.91 843 24.89 8 46.4 72 3.3 38
17:35 1013 29.91 843 24.89 8 46.4 73 3.5 38.3
17:40 1013 29.91 842 24.86 8 46.3 73 3.5 38.3
17:45 1013 29.91 843 24.89 7.9 46.3 74 3.7 38.6
17:50 1013 29.91 843 24.89 8 46.5 75 3.9 39
17:55 1013 29.91 843 24.89 8 46.4 77 4.2 39.6
18:00 1013 29.91 842 24.86 7.8 46.1 78 4.3 39.8
18:05 1013 29.91 842 24.86 7.8 46 79 4.5 40
18:10 1013 29.91 842 24.86 7.8 46 81 4.8 40.6
18:15 1013 29.91 842 24.86 7.8 46 82 4.8 40.7
18:20 1013 29.91 842 24.86 7.6 45.8 82 4.8 40.7
18:25 1013 29.91 842 24.86 7.7 45.9 80 4.5 40.1
18:30 1013 29.91 842 24.86 7.7 45.8 81 4.6 40.3
18:35 1013 29.91 842 24.86 7.8 46.1 79 4.5 40
18:40 1013 29.91 842 24.86 7.9 46.2 78 4.4 39.9
18:45 1013 29.91 842 24.86 8 46.3 78 4.4 40
18:50 1013 29.91 842 24.86 8 46.4 77 4.2 39.5
18:55 1013 29.91 842 24.86 8.1 46.6 76 4.2 39.6
19:00 1013 29.91 842 24.86 8.1 46.5 76 4.1 39.3
19:05 1013 29.91 843 24.89 8.1 46.6 74 3.8 38.8
19:10 1014 29.94 843 24.89 8.1 46.5 74 3.8 38.8
19:15 1014 29.94 843 24.89 8 46.4 75 3.9 39
19:20 1014 29.94 843 24.89 8 46.4 76 4 39.2
19:25 1014 29.94 843 24.89 8 46.5 76 4 39.2
19:30 1014 29.94 843 24.89 8 46.4 75 3.9 39
19:35 1014 29.94 843 24.89 8 46.3 75 3.9 39
19:40 1014 29.94 843 24.89 8 46.3 76 3.9 39.1
19:45 1014 29.94 843 24.89 7.9 46.2 77 4.2 39.5
19:50 1014 29.94 843 24.89 7.8 46 76 3.8 38.8
19:55 1014 29.94 843 24.89 7.5 45.5 74 3.1 37.6
20:00 1014 29.94 843 24.89 7.3 45.1 73 2.7 36.9
20:05 1014 29.94 843 24.89 7.2 44.9 73 2.7 36.8
20:10 1014 29.94 844 24.92 7.1 44.7 73 2.5 36.5
20:15 1014 29.94 844 24.92 7 44.6 74 2.6 36.7
20:20 1014 29.94 843 24.89 7 44.5 74 2.7 36.9
20:25 1014 29.94 844 24.92 7 44.6 74 2.7 36.9
20:30 1014 29.94 844 24.92 6.9 44.4 74 2.7 36.8
20:35 1014 29.94 844 24.92 6.8 44.3 76 2.9 37.2
20:40 1015 29.97 844 24.92 6.7 44.1 76 2.8 37.1
20:45 1015 29.97 844 24.92 6.6 44 77 2.9 37.1
20:50 1015 29.97 844 24.92 6.6 43.8 78 3.1 37.5
20:55 1015 29.97 844 24.92 6.6 43.8 78 2.9 37.3
21:00 1015 29.97 844 24.92 6.5 43.7 78 3 37.4
21:05 1015 29.97 844 24.92 6.5 43.7 78 3 37.4
21:10 1015 29.97 844 24.92 6.6 43.9 77 2.8 37
21:15 1015 29.97 844 24.92 6.5 43.8 78 2.9 37.3
21:20 1015 29.97 844 24.92 6.5 43.8 79 3.1 37.5
21:25 1015 29.97 844 24.92 6.6 43.8 78 3 37.4
21:30 1015 29.97 844 24.92 6.5 43.8 78 3 37.4
21:35 1015 29.97 844 24.92 6.5 43.6 78 2.9 37.3
21:40 1015 29.97 844 24.92 6.4 43.6 78 2.9 37.2
21:45 1015 29.97 844 24.92 6.5 43.6 78 2.8 37.1
21:50 1015 29.97 844 24.92 6.5 43.7 79 3.1 37.6
21:55 1015 29.97 844 24.92 6.5 43.6 80 3.3 37.9
22:00 1015 29.97 844 24.92 6.2 43.1 82 3.4 38.1
22:05 1015 29.97 844 24.92 5.9 42.6 84 3.5 38.3
22:10 1015 29.97 844 24.92 5.7 42.3 86 3.6 38.5
22:15 1015 29.97 844 24.92 5.6 42 87 3.6 38.5
22:20 1015 29.97 844 24.92 5.4 41.8 87 3.5 38.3
22:25 1015 29.97 844 24.92 5.3 41.6 87 3.3 38
22:30 1015 29.97 844 24.92 5.2 41.4 87 3.2 37.8
22:35 1015 29.97 844 24.92 5.1 41.2 87 3.1 37.5
22:40 1014 29.94 844 24.92 5.1 41.2 87 3.1 37.7
22:45 1015 29.97 844 24.92 5.1 41.1 87 3.1 37.6
22:50 1015 29.97 844 24.92 5 41 88 3.1 37.6
22:55 1015 29.97 844 24.92 4.8 40.7 88 3.1 37.5
23:00 1014 29.94 844 24.92 4.8 40.7 88 3 37.3
23:05 1014 29.94 843 24.89 4.7 40.5 88 2.8 37.1
23:10 1014 29.94 844 24.92 4.7 40.4 89 2.9 37.3
23:15 1014 29.94 844 24.92 4.5 40.2 90 3 37.4
23:20 1015 29.97 844 24.92 4.4 40 90 3 37.4
23:25 1014 29.94 844 24.92 4.3 39.8 91 3 37.4
23:30 1015 29.97 844 24.92 4.2 39.6 92 3 37.4
23:35 1015 29.97 844 24.92 4.1 39.5 93 3.1 37.5
23:40 1015 29.97 844 24.92 4.1 39.4 92 3 37.4
23:45 1015 29.97 844 24.92 4.1 39.3 91 2.8 37
23:50 1015 29.97 844 24.92 4 39.2 92 2.8 37
23:55 1016 30 845 24.95 4 39.2 92 2.9 37.2
24:00 1016 30 845 24.95 3.9 39 90 2.3 36.2